Roy Baker — WDC2698 — position and weather

sailwx.info

Track history (hours):
 
Tides and Currents Weather Stations Pressure Air Temp Water Temp Dewpoint Dewpoint Depression Visibility Wind Speed Wind Dir Waves Ship Positions

Roy Baker

Owner: Kirby Inland Marine LP, Houston, TX. More information available from US FCC via Universal Licensing System and Coast Guard Vessel Documentation Center.

Last reported at 2017-Mar-26 07:23 UTC. Time now 2017-Mar-28 10:05 UTC.
Position N 29°32' W 090°49'.

Length 11 m; draft 2.1 m.

Type: . MMSI: 366996540.

Date/timePositionNaut miles runAvg speedWind from/ knotsBaromVisibWave heightAir tempDewpointWater temp
2017-Mar-26 07:23N 29°32' W 090°49'3 3.3
2017-Mar-26 06:33N 29°33' W 090°46'3 3.1
2017-Mar-26 05:33N 29°35' W 090°43'2 2.2
2017-Mar-26 04:31N 29°36' W 090°41'4 3.7
2017-Mar-26 03:34N 29°35' W 090°38'5 5.0
2017-Mar-26 02:34N 29°34' W 090°32'  
2017-Mar-23 12:26N 29°34' W 090°32'3 1.5
2017-Mar-23 10:34N 29°35' W 090°35'0 0.2
2017-Mar-23 09:33N 29°35' W 090°35'3 2.1
2017-Mar-23 08:19N 29°35' W 090°38'0 0.1
2017-Mar-23 07:31N 29°35' W 090°39'0 0.0
2017-Mar-23 06:31N 29°35' W 090°38'0 0.0
2017-Mar-23 05:29N 29°35' W 090°38'2 1.9
2017-Mar-23 04:32N 29°36' W 090°40'0 0.2
2017-Mar-23 03:32N 29°36' W 090°40'2 2.3
2017-Mar-23 02:34N 29°35' W 090°43'3 3.2
2017-Mar-23 01:34N 29°33' W 090°45'69 2.9
2017-Mar-22 01:33N 29°49' W 092°03'6 5.8
2017-Mar-22 00:33N 29°47' W 092°09'4 4.5
2017-Mar-21 23:33N 29°48' W 092°14'6 5.7
2017-Mar-21 22:33N 29°51' W 092°20'3 2.2
2017-Mar-21 21:25N 29°52' W 092°22'0 0.0
2017-Mar-21 20:33N 29°52' W 092°22'39 4.3
2017-Mar-21 11:33N 29°56' W 093°07'3 3.5
2017-Mar-21 10:33N 29°58' W 093°11'5 4.8
2017-Mar-21 09:33N 30°02' W 093°14'4 3.8
2017-Mar-21 08:33N 30°05' W 093°17'2 2.0
2017-Mar-21 07:33N 30°06' W 093°18'0 0.0
2017-Mar-21 06:31N 30°06' W 093°18'0 0.0
2017-Mar-21 05:31N 30°06' W 093°18'0 0.0
2017-Mar-21 04:31N 30°06' W 093°18'0 0.0
2017-Mar-21 03:31N 30°06' W 093°18'0 0.2
2017-Mar-21 02:28N 30°06' W 093°18'0 0.0
2017-Mar-21 01:31N 30°06' W 093°18'0 0.1
2017-Mar-21 00:33N 30°06' W 093°18'0 0.4
2017-Mar-20 23:33N 30°06' W 093°18'5 4.8
2017-Mar-20 22:33N 30°04' W 093°23'1 0.9
2017-Mar-20 21:33N 30°04' W 093°24'0 0.2
2017-Mar-20 20:32N 30°04' W 093°24'5 5.0
2017-Mar-20 19:33N 30°04' W 093°29'2 0.0
2017-Mar-18 20:27N 30°04' W 093°32'4 4.4
2017-Mar-18 19:33N 30°04' W 093°27'4 4.5
2017-Mar-18 18:33N 30°04' W 093°22'4 3.6
2017-Mar-18 17:33N 30°06' W 093°19'2 2.4
2017-Mar-18 16:34N 30°05' W 093°17'1 0.7
2017-Mar-18 15:32N 30°04' W 093°16'2 2.1
2017-Mar-18 14:33N 30°02' W 093°15'0 0.1
2017-Mar-18 13:33N 30°02' W 093°15'0 0.4
2017-Mar-18 12:33N 30°02' W 093°15'0 0.0
2017-Mar-18 11:33N 30°02' W 093°15'0 0.1
2017-Mar-18 10:33N 30°02' W 093°15'0 0.4
2017-Mar-18 09:33N 30°02' W 093°14'0 0.0
2017-Mar-18 08:33N 30°02' W 093°14'0 0.0
2017-Mar-18 07:33N 30°02' W 093°14'0 0.0
2017-Mar-18 06:33N 30°02' W 093°14'0 0.0
2017-Mar-18 05:33N 30°02' W 093°14'1 1.3
2017-Mar-18 04:33N 30°00' W 093°14'3 3.3
2017-Mar-18 03:33N 29°58' W 093°11'4 3.8
2017-Mar-18 02:32N 29°56' W 093°07'40 3.5
2017-Mar-17 15:13N 29°51' W 092°22'3 4.2
2017-Mar-17 14:33N 29°50' W 092°19'4 3.6
2017-Mar-17 13:33N 29°48' W 092°15'4 3.9
2017-Mar-17 12:33N 29°47' W 092°11'1 0.5
2017-Mar-17 11:25N 29°47' W 092°11'1 1.6
2017-Mar-17 10:33N 29°47' W 092°09'4 4.2
2017-Mar-17 09:33N 29°48' W 092°05'4 3.9
2017-Mar-17 08:33N 29°50' W 092°00'5 4.1
2017-Mar-17 07:27N 29°51' W 091°55'59 3.7
2017-Mar-16 15:27N 29°32' W 090°51'4 4.5
2017-Mar-16 14:33N 29°32' W 090°46'4 3.6
2017-Mar-16 13:33N 29°35' W 090°43'2 2.3
2017-Mar-16 12:31N 29°37' W 090°41'1 0.9
2017-Mar-16 11:28N 29°36' W 090°40'0 0.0
2017-Mar-16 10:33N 29°36' W 090°40'0 0.1
2017-Mar-16 09:32N 29°36' W 090°40'0 0.2
2017-Mar-16 08:33N 29°36' W 090°40'3 3.0
2017-Mar-16 07:33N 29°35' W 090°37'  
Track history (hours):
 
Tides and Currents Weather Stations Pressure Air Temp Water Temp Dewpoint Dewpoint Depression Visibility Wind Speed Wind Dir Waves Ship Positions

Roy Baker

Owner: Kirby Inland Marine LP, Houston, TX. More information available from US FCC via Universal Licensing System and Coast Guard Vessel Documentation Center.

Last reported at 2017-Mar-26 07:23 UTC. Time now 2017-Mar-28 10:05 UTC.
Position N 29°32' W 090°49'.

Length 11 m; draft 2.1 m.

Type: . MMSI: 366996540.

Date/timePositionNaut miles runAvg speedWind from/ knotsBaromVisibWave heightAir tempDewpointWater temp
2017-Mar-26 07:23N 29°32' W 090°49'3 3.3
2017-Mar-26 06:33N 29°33' W 090°46'3 3.1
2017-Mar-26 05:33N 29°35' W 090°43'2 2.2
2017-Mar-26 04:31N 29°36' W 090°41'4 3.7
2017-Mar-26 03:34N 29°35' W 090°38'5 5.0
2017-Mar-26 02:34N 29°34' W 090°32'  
2017-Mar-23 12:26N 29°34' W 090°32'3 1.5
2017-Mar-23 10:34N 29°35' W 090°35'0 0.2
2017-Mar-23 09:33N 29°35' W 090°35'3 2.1
2017-Mar-23 08:19N 29°35' W 090°38'0 0.1
2017-Mar-23 07:31N 29°35' W 090°39'0 0.0
2017-Mar-23 06:31N 29°35' W 090°38'0 0.0
2017-Mar-23 05:29N 29°35' W 090°38'2 1.9
2017-Mar-23 04:32N 29°36' W 090°40'0 0.2
2017-Mar-23 03:32N 29°36' W 090°40'2 2.3
2017-Mar-23 02:34N 29°35' W 090°43'3 3.2
2017-Mar-23 01:34N 29°33' W 090°45'69 2.9
2017-Mar-22 01:33N 29°49' W 092°03'6 5.8
2017-Mar-22 00:33N 29°47' W 092°09'4 4.5
2017-Mar-21 23:33N 29°48' W 092°14'6 5.7
2017-Mar-21 22:33N 29°51' W 092°20'3 2.2
2017-Mar-21 21:25N 29°52' W 092°22'0 0.0
2017-Mar-21 20:33N 29°52' W 092°22'39 4.3
2017-Mar-21 11:33N 29°56' W 093°07'3 3.5
2017-Mar-21 10:33N 29°58' W 093°11'5 4.8
2017-Mar-21 09:33N 30°02' W 093°14'4 3.8
2017-Mar-21 08:33N 30°05' W 093°17'2 2.0
2017-Mar-21 07:33N 30°06' W 093°18'0 0.0
2017-Mar-21 06:31N 30°06' W 093°18'0 0.0
2017-Mar-21 05:31N 30°06' W 093°18'0 0.0
2017-Mar-21 04:31N 30°06' W 093°18'0 0.0
2017-Mar-21 03:31N 30°06' W 093°18'0 0.2
2017-Mar-21 02:28N 30°06' W 093°18'0 0.0
2017-Mar-21 01:31N 30°06' W 093°18'0 0.1
2017-Mar-21 00:33N 30°06' W 093°18'0 0.4
2017-Mar-20 23:33N 30°06' W 093°18'5 4.8
2017-Mar-20 22:33N 30°04' W 093°23'1 0.9
2017-Mar-20 21:33N 30°04' W 093°24'0 0.2
2017-Mar-20 20:32N 30°04' W 093°24'5 5.0
2017-Mar-20 19:33N 30°04' W 093°29'2 0.0
2017-Mar-18 20:27N 30°04' W 093°32'4 4.4
2017-Mar-18 19:33N 30°04' W 093°27'4 4.5
2017-Mar-18 18:33N 30°04' W 093°22'4 3.6
2017-Mar-18 17:33N 30°06' W 093°19'2 2.4
2017-Mar-18 16:34N 30°05' W 093°17'1 0.7
2017-Mar-18 15:32N 30°04' W 093°16'2 2.1
2017-Mar-18 14:33N 30°02' W 093°15'0 0.1
2017-Mar-18 13:33N 30°02' W 093°15'0 0.4
2017-Mar-18 12:33N 30°02' W 093°15'0 0.0
2017-Mar-18 11:33N 30°02' W 093°15'0 0.1
2017-Mar-18 10:33N 30°02' W 093°15'0 0.4
2017-Mar-18 09:33N 30°02' W 093°14'0 0.0
2017-Mar-18 08:33N 30°02' W 093°14'0 0.0
2017-Mar-18 07:33N 30°02' W 093°14'0 0.0
2017-Mar-18 06:33N 30°02' W 093°14'0 0.0
2017-Mar-18 05:33N 30°02' W 093°14'1 1.3
2017-Mar-18 04:33N 30°00' W 093°14'3 3.3
2017-Mar-18 03:33N 29°58' W 093°11'4 3.8
2017-Mar-18 02:32N 29°56' W 093°07'40 3.5
2017-Mar-17 15:13N 29°51' W 092°22'3 4.2
2017-Mar-17 14:33N 29°50' W 092°19'4 3.6
2017-Mar-17 13:33N 29°48' W 092°15'4 3.9
2017-Mar-17 12:33N 29°47' W 092°11'1 0.5
2017-Mar-17 11:25N 29°47' W 092°11'1 1.6
2017-Mar-17 10:33N 29°47' W 092°09'4 4.2
2017-Mar-17 09:33N 29°48' W 092°05'4 3.9
2017-Mar-17 08:33N 29°50' W 092°00'5 4.1
2017-Mar-17 07:27N 29°51' W 091°55'59 3.7
2017-Mar-16 15:27N 29°32' W 090°51'4 4.5
2017-Mar-16 14:33N 29°32' W 090°46'4 3.6
2017-Mar-16 13:33N 29°35' W 090°43'2 2.3
2017-Mar-16 12:31N 29°37' W 090°41'1 0.9
2017-Mar-16 11:28N 29°36' W 090°40'0 0.0
2017-Mar-16 10:33N 29°36' W 090°40'0 0.1
2017-Mar-16 09:32N 29°36' W 090°40'0 0.2
2017-Mar-16 08:33N 29°36' W 090°40'3 3.0
2017-Mar-16 07:33N 29°35' W 090°37'  

Dump ship's entire track history